Time;durP1;ratioP1;P1;durP2;ratioP2;P2;SDS_P1;SDS_P2;PMS_P1;PMS_P2;Temp;Humidity;BMP_temperature;BMP_pressure;BME280_temperature;BME280_humidity;BME280_pressure;Samples;Min_cycle;Max_cycle;Signal;HPM_P1;HPM_P2
2021/11/08 00:00:45;;;;;;;12.80;6.70;;;;;;;18.11;64.33;101592.56;1669947;82;20981;-54
2021/11/08 00:03:14;;;;;;;9.83;6.53;;;;;;;18.11;64.34;101579.84;1716633;82;21498;-54
2021/11/08 00:05:43;;;;;;;11.03;6.28;;;;;;;18.11;64.27;101590.38;1709321;82;20958;-54
2021/11/08 00:08:09;;;;;;;13.13;6.90;;;;;;;18.11;64.35;101590.38;1710382;83;21013;-52
2021/11/08 00:10:38;;;;;;;16.25;7.25;;;;;;;18.09;64.35;101592.22;1712876;82;21485;-53
2021/11/08 00:13:07;;;;;;;10.68;6.67;;;;;;;18.08;64.37;101590.48;1712311;82;21070;-51
2021/11/08 00:21:02;;;;;;;14.35;7.95;;;;;;;18.10;64.26;101583.38;1704878;83;21081;-54
2021/11/08 00:23:29;;;;;;;13.65;7.45;;;;;;;18.10;64.25;101593.91;1703171;83;21026;-51
2021/11/08 00:25:57;;;;;;;13.90;7.87;;;;;;;18.10;64.24;101589.52;1707907;83;21082;-54
2021/11/08 00:28:26;;;;;;;11.33;7.33;;;;;;;18.12;64.17;101589.45;1700410;82;21558;-51
2021/11/08 00:30:54;;;;;;;13.78;7.92;;;;;;;18.13;64.15;101587.23;1712553;83;21538;-53
2021/11/08 00:33:23;;;;;;;15.98;8.18;;;;;;;18.13;64.09;101584.59;1702190;82;21022;-54
2021/11/08 00:35:55;;;;;;;13.03;7.37;;;;;;;18.12;64.01;101578.91;1698168;83;21115;-55
2021/11/08 00:38:24;;;;;;;12.53;7.60;;;;;;;18.11;64.07;101574.58;1706597;82;21049;-54
2021/11/08 00:40:51;;;;;;;14.15;8.73;;;;;;;18.10;64.06;101571.53;1672374;84;21522;-51
2021/11/08 00:43:18;;;;;;;12.90;7.47;;;;;;;18.08;64.19;101580.81;1701764;82;21478;-55
2021/11/08 00:45:46;;;;;;;13.90;7.22;;;;;;;18.09;64.19;101594.85;1680721;84;21050;-51
2021/11/08 00:50:41;;;;;;;12.23;7.58;;;;;;;18.10;64.13;101593.91;1652514;86;21033;-53
2021/11/08 00:53:08;;;;;;;16.35;7.40;;;;;;;18.10;64.08;101586.02;1648521;86;21049;-53
2021/11/08 00:55:36;;;;;;;17.10;8.68;;;;;;;18.11;64.05;101585.98;1651541;86;21065;-51
2021/11/08 00:58:03;;;;;;;13.58;7.70;;;;;;;18.11;64.13;101566.67;1646047;86;21506;-54
2021/11/08 01:00:31;;;;;;;12.75;7.45;;;;;;;18.09;64.16;101564.56;1648922;86;21101;-53
2021/11/08 01:03:01;;;;;;;17.05;8.65;;;;;;;18.10;64.19;101551.77;1650332;86;21014;-55
2021/11/08 01:05:27;;;;;;;19.25;8.00;;;;;;;18.10;64.12;101542.55;1649021;86;21022;-53
2021/11/08 01:07:53;;;;;;;11.83;8.18;;;;;;;18.12;64.03;101529.73;1645495;86;21033;-54
2021/11/08 01:10:20;;;;;;;12.58;8.28;;;;;;;18.13;64.04;101529.28;1645977;86;21037;-50
2021/11/08 01:12:47;;;;;;;16.55;8.35;;;;;;;18.11;64.07;101520.58;1642898;86;21019;-54
2021/11/08 01:15:15;;;;;;;15.10;7.70;;;;;;;18.09;64.23;101544.36;1662958;86;21018;-51
2021/11/08 01:17:42;;;;;;;14.47;8.50;;;;;;;18.08;64.20;101548.34;1663872;86;21026;-56
2021/11/08 01:20:11;;;;;;;14.03;7.35;;;;;;;18.08;64.20;101539.13;1658830;86;21030;-53
2021/11/08 01:22:40;;;;;;;15.88;8.20;;;;;;;18.07;64.18;101542.25;1659078;86;21563;-54
2021/11/08 01:25:08;;;;;;;13.50;8.40;;;;;;;18.07;64.26;101546.65;1658461;86;21014;-56
2021/11/08 01:27:43;;;;;;;17.23;9.20;;;;;;;18.07;64.26;101541.38;1661067;85;21058;-51
2021/11/08 01:30:23;;;;;;;12.80;8.50;;;;;;;18.09;64.25;101539.55;1662162;85;21030;-55
2021/11/08 01:32:57;;;;;;;12.58;8.60;;;;;;;18.10;64.14;101533.34;1629055;86;21171;-58
2021/11/08 01:35:30;;;;;;;14.78;8.75;;;;;;;18.09;64.17;101527.23;1620053;86;21034;-55
2021/11/08 01:38:04;;;;;;;12.58;8.55;;;;;;;18.08;64.18;101517.61;1623522;86;21038;-55
2021/11/08 01:40:30;;;;;;;10.48;7.92;;;;;;;18.07;64.23;101520.31;1620680;86;21046;-52
2021/11/08 01:42:57;;;;;;;14.83;8.03;;;;;;;18.07;64.27;101523.81;1626013;86;21557;-52
2021/11/08 01:45:24;;;;;;;10.90;7.80;;;;;;;18.08;64.29;101525.50;1622130;88;21081;-54
2021/11/08 01:47:51;;;;;;;13.38;8.80;;;;;;;18.09;64.35;101535.14;1671471;83;21090;-51
2021/11/08 01:50:18;;;;;;;12.53;7.85;;;;;;;18.09;64.31;101531.64;1704953;82;21089;-54
2021/11/08 01:52:45;;;;;;;14.55;9.15;;;;;;;18.08;64.27;101533.41;1704317;82;21117;-53
2021/11/08 01:55:12;;;;;;;12.73;7.58;;;;;;;18.07;64.32;101526.45;1702809;82;21067;-53
2021/11/08 01:57:39;;;;;;;19.42;9.85;;;;;;;18.10;64.32;101524.12;1706175;82;21522;-54
2021/11/08 02:00:07;;;;;;;17.17;8.58;;;;;;;18.10;64.24;101515.77;1706530;83;21577;-54
2021/11/08 02:02:34;;;;;;;19.67;9.38;;;;;;;18.10;64.19;101514.91;1707346;82;21015;-54
2021/11/08 02:05:03;;;;;;;12.82;9.23;;;;;;;18.11;64.17;101519.27;1707001;82;20990;-51
2021/11/08 02:07:31;;;;;;;13.00;8.85;;;;;;;18.11;64.18;101521.90;1710549;82;21019;-55
2021/11/08 02:09:57;;;;;;;12.00;7.95;;;;;;;18.09;64.20;101527.23;1721167;82;21049;-55
2021/11/08 02:12:24;;;;;;;14.60;9.03;;;;;;;18.09;64.15;101539.55;1741949;81;21076;-53
2021/11/08 02:14:51;;;;;;;12.90;8.15;;;;;;;18.09;64.15;101531.64;1702986;83;21081;-57
2021/11/08 02:17:17;;;;;;;12.93;9.38;;;;;;;18.09;64.06;101528.55;1708868;83;20986;-54
2021/11/08 02:19:45;;;;;;;18.92;10.35;;;;;;;18.08;64.01;101535.17;1706892;83;21577;-57
2021/11/08 02:22:11;;;;;;;15.38;9.45;;;;;;;18.10;64.01;101533.34;1743002;81;21014;-55
2021/11/08 02:24:41;;;;;;;16.67;9.63;;;;;;;18.10;63.98;101528.07;1707857;83;21049;-50
2021/11/08 02:27:07;;;;;;;14.00;9.18;;;;;;;18.10;63.95;101524.12;1704614;83;21030;-53
2021/11/08 02:29:34;;;;;;;13.03;8.80;;;;;;;18.08;63.90;101529.91;1708615;83;21616;-54
2021/11/08 02:32:01;;;;;;;15.20;10.08;;;;;;;18.08;63.87;101535.17;1701949;83;20983;-54
2021/11/08 02:34:28;;;;;;;12.20;8.90;;;;;;;18.08;63.83;101529.91;1733415;81;21015;-56
2021/11/08 02:36:54;;;;;;;14.90;9.85;;;;;;;18.07;63.77;101528.21;1733715;81;21034;-53
2021/11/08 02:41:55;;;;;;;12.40;9.90;;;;;;;18.08;63.65;101527.27;1686012;85;21012;-54
2021/11/08 02:44:22;;;;;;;13.83;9.45;;;;;;;18.07;63.54;101526.89;1685692;85;21064;-58
2021/11/08 02:46:52;;;;;;;17.17;10.28;;;;;;;18.08;63.56;101532.55;1685721;85;21081;-54
2021/11/08 02:49:17;;;;;;;14.30;8.95;;;;;;;18.08;63.46;101537.81;1685753;85;21044;-53
2021/11/08 02:51:57;;;;;;;13.30;9.43;;;;;;;18.07;63.44;101527.76;1686088;85;21098;-55
2021/11/08 02:54:27;;;;;;;12.95;9.88;;;;;;;18.05;63.42;101531.37;1650588;87;21069;-53
2021/11/08 02:56:50;;;;;;;12.58;10.28;;;;;;;18.04;63.42;101560.79;1684559;85;21006;-53
2021/11/08 02:59:17;;;;;;;17.23;10.45;;;;;;;18.05;63.44;101564.29;1684975;85;20996;-53
2021/11/08 03:01:46;;;;;;;12.18;9.33;;;;;;;18.05;63.50;101561.66;1686033;85;21085;-53
2021/11/08 03:04:20;;;;;;;18.92;11.25;;;;;;;18.06;63.54;101567.30;1685979;85;21515;-56
2021/11/08 03:06:44;;;;;;;16.20;10.65;;;;;;;18.06;63.52;101566.85;1682915;85;21023;-53
2021/11/08 03:09:29;;;;;;;13.30;10.28;;;;;;;18.08;63.44;101566.78;1686199;85;20983;-51
2021/11/08 03:11:55;;;;;;;14.25;10.00;;;;;;;18.09;63.42;101583.00;1686113;85;21067;-57
2021/11/08 03:14:25;;;;;;;13.15;9.43;;;;;;;18.11;63.32;101589.06;1686341;85;21001;-53
2021/11/08 03:17:01;;;;;;;13.85;9.58;;;;;;;18.10;63.27;101584.70;1685704;85;21021;-53
2021/11/08 03:19:35;;;;;;;15.60;10.48;;;;;;;18.09;63.30;101581.68;1685878;85;21108;-55
2021/11/08 03:22:01;;;;;;;11.97;9.48;;;;;;;18.07;63.32;101571.22;1681073;85;21075;-52
2021/11/08 03:27:36;;;;;;;16.93;10.53;;;;;;;18.08;63.38;101593.12;1685233;85;21046;-53
2021/11/08 03:29:56;;;;;;;11.50;9.78;;;;;;;18.10;63.45;101570.21;1648901;86;21565;-52
2021/11/08 03:32:23;;;;;;;14.13;10.30;;;;;;;18.12;63.33;101567.06;1692469;83;21558;-57
2021/11/08 03:35:04;;;;;;;17.60;10.72;;;;;;;18.14;63.32;101541.52;1674668;86;21429;-52
2021/11/08 03:37:41;;;;;;;14.38;10.55;;;;;;;18.15;63.29;101510.32;1670643;86;21058;-56
2021/11/08 03:40:13;;;;;;;13.55;9.18;;;;;;;18.15;63.26;101509.87;1669383;86;21004;-53
2021/11/08 03:42:41;;;;;;;16.97;10.00;;;;;;;18.16;63.24;101494.89;1668886;84;21507;-54
2021/11/08 03:45:10;;;;;;;14.55;11.05;;;;;;;18.14;63.37;101495.42;1662453;85;21123;-52
2021/11/08 03:47:37;;;;;;;12.78;9.18;;;;;;;18.11;63.55;101510.91;1662256;86;21542;-52
2021/11/08 03:50:06;;;;;;;14.10;9.45;;;;;;;18.11;63.56;101533.75;1711421;83;21542;-54
2021/11/08 03:52:33;;;;;;;18.60;10.70;;;;;;;18.10;63.64;101528.07;1674768;84;20983;-56
2021/11/08 03:55:00;;;;;;;12.63;9.65;;;;;;;18.09;63.74;101535.59;1662317;85;21058;-52
2021/11/08 03:57:27;;;;;;;13.70;9.63;;;;;;;18.11;63.77;101535.06;1711467;83;21026;-56
2021/11/08 03:59:54;;;;;;;13.38;9.50;;;;;;;18.12;63.84;101555.20;1711361;83;21066;-54
2021/11/08 04:02:21;;;;;;;17.17;10.38;;;;;;;18.14;63.79;101564.77;1674848;84;21003;-55
2021/11/08 04:04:48;;;;;;;14.05;9.98;;;;;;;18.16;63.83;101562.06;1662816;85;21022;-56
2021/11/08 04:07:15;;;;;;;13.53;10.00;;;;;;;18.16;63.74;101546.26;1686341;83;21002;-52
2021/11/08 04:09:41;;;;;;;13.35;9.93;;;;;;;18.17;63.68;101519.02;1716324;82;21086;-56
2021/11/08 04:12:09;;;;;;;13.75;10.40;;;;;;;18.18;63.62;101519.39;1705277;82;21124;-54
2021/11/08 04:14:37;;;;;;;14.65;9.85;;;;;;;18.20;63.65;101524.14;1705619;83;20990;-52
2021/11/08 04:17:04;;;;;;;15.30;9.73;;;;;;;18.21;63.58;101524.55;1693936;82;21043;-54
2021/11/08 04:19:32;;;;;;;14.78;9.93;;;;;;;18.20;63.62;101557.06;1706582;82;21515;-55
2021/11/08 04:22:00;;;;;;;13.95;9.98;;;;;;;18.20;63.62;101575.05;1706671;82;22072;-52
2021/11/08 04:24:28;;;;;;;13.98;9.90;;;;;;;18.22;63.63;101585.52;1703515;82;21042;-55
2021/11/08 04:26:55;;;;;;;13.90;9.30;;;;;;;18.24;63.67;101584.55;1702778;82;20983;-55
2021/11/08 04:29:23;;;;;;;13.68;9.30;;;;;;;18.27;63.63;101580.94;1706336;83;21078;-53
2021/11/08 04:31:50;;;;;;;17.20;10.72;;;;;;;18.29;63.51;101579.10;1704672;82;21531;-58
2021/11/08 05:24:31;;;;;;;15.65;10.48;;;;;;;18.37;63.47;101554.61;1670748;85;21027;-54
2021/11/08 05:32:27;;;;;;;15.35;10.13;;;;;;;18.37;63.62;101582.28;1671072;84;21063;-53
2021/11/08 05:34:54;;;;;;;12.82;9.65;;;;;;;18.38;63.70;101602.45;1683065;84;21547;-53
2021/11/08 05:37:22;;;;;;;14.63;9.38;;;;;;;18.38;63.75;101600.66;1683136;85;21100;-51
2021/11/08 05:39:51;;;;;;;17.02;10.13;;;;;;;18.39;63.80;101609.42;1683277;84;21101;-52
2021/11/08 05:42:17;;;;;;;16.35;10.10;;;;;;;18.41;63.75;101591.77;1680758;85;21602;-53
2021/11/08 05:44:43;;;;;;;13.45;9.50;;;;;;;18.42;63.64;101579.02;1682807;84;21519;-53
2021/11/08 05:47:10;;;;;;;14.63;9.78;;;;;;;18.42;63.77;101627.77;1682710;85;21554;-51
2021/11/08 05:49:37;;;;;;;14.45;9.60;;;;;;;18.44;63.79;101645.72;1683229;84;21074;-53
2021/11/08 05:52:04;;;;;;;14.23;9.30;;;;;;;18.43;63.82;101640.00;1683047;84;20991;-54
2021/11/08 05:54:32;;;;;;;17.98;9.50;;;;;;;18.45;63.87;101640.83;1716309;82;21002;-54
2021/11/08 06:51:31;;;;;;;13.80;9.65;;;;;;;18.74;63.48;101608.88;1736664;81;21526;-50
2021/11/08 06:54:02;;;;;;;17.05;10.18;;;;;;;18.74;63.49;101611.51;1736420;81;21035;-54
2021/11/08 06:56:28;;;;;;;16.57;10.32;;;;;;;18.74;63.48;101616.78;1732931;81;21008;-54
2021/11/08 06:58:56;;;;;;;14.53;9.65;;;;;;;18.73;63.50;101625.63;1731517;81;20976;-51
2021/11/08 07:01:23;;;;;;;14.65;9.68;;;;;;;18.74;63.66;101639.19;1733859;81;21022;-52
2021/11/08 07:03:50;;;;;;;14.10;9.88;;;;;;;18.77;63.66;101643.03;1733262;81;20999;-52
2021/11/08 07:06:16;;;;;;;12.35;9.33;;;;;;;18.79;63.62;101643.83;1734769;81;21035;-53
2021/11/08 07:08:42;;;;;;;13.80;9.28;;;;;;;18.83;63.57;101645.41;1736721;81;21022;-55
2021/11/08 07:11:09;;;;;;;14.20;9.40;;;;;;;18.85;63.40;101644.89;1736490;81;21015;-55
2021/11/08 07:13:35;;;;;;;15.15;9.35;;;;;;;18.88;63.32;101638.15;1704604;84;21050;-52
2021/11/08 07:16:04;;;;;;;17.35;10.03;;;;;;;18.89;63.20;101643.84;1699944;84;21049;-54
2021/11/08 07:18:31;;;;;;;13.90;10.25;;;;;;;18.90;63.16;101642.90;1735548;82;20990;-50
2021/11/08 07:20:57;;;;;;;15.63;10.15;;;;;;;18.90;63.14;101638.95;1723302;81;21026;-52
2021/11/08 07:23:24;;;;;;;15.43;10.55;;;;;;;18.92;63.10;101645.50;1736387;81;21055;-55
2021/11/08 07:25:50;;;;;;;14.87;10.80;;;;;;;18.94;63.01;101647.61;1736588;81;20991;-58
2021/11/08 07:28:17;;;;;;;17.02;10.58;;;;;;;18.96;62.98;101640.48;1733847;81;21003;-55
2021/11/08 07:30:46;;;;;;;16.52;10.20;;;;;;;18.96;62.97;101634.73;1734262;82;21062;-54
2021/11/08 07:33:12;;;;;;;14.40;9.95;;;;;;;18.99;62.99;101637.70;1734467;81;21023;-53
2021/11/08 07:35:38;;;;;;;14.93;9.33;;;;;;;19.00;63.00;101644.22;1733546;81;20987;-53
2021/11/08 07:38:05;;;;;;;19.65;9.95;;;;;;;19.01;62.98;101635.41;1733660;81;21023;-55
2021/11/08 07:40:32;;;;;;;17.65;11.33;;;;;;;19.04;62.97;101639.21;1733500;81;21078;-56
2021/11/08 07:42:58;;;;;;;12.50;9.40;;;;;;;19.07;62.92;101649.65;1733982;81;20971;-54
2021/11/08 07:45:26;;;;;;;10.72;9.63;;;;;;;19.06;62.91;101653.19;1731668;81;21034;-54
2021/11/08 07:47:54;;;;;;;11.48;9.15;;;;;;;19.08;62.89;101663.22;1735164;81;21027;-52
2021/11/08 07:50:21;;;;;;;14.35;9.75;;;;;;;19.10;62.84;101667.97;1733476;81;21018;-56
2021/11/08 07:52:48;;;;;;;17.73;10.70;;;;;;;19.14;62.78;101674.86;1733615;81;20987;-55
2021/11/08 07:55:14;;;;;;;15.83;9.98;;;;;;;19.17;62.76;101677.35;1733161;81;21086;-53
2021/11/08 07:57:42;;;;;;;14.98;10.18;;;;;;;19.20;62.62;101677.23;1731845;81;21503;-54
2021/11/08 08:00:09;;;;;;;15.53;12.37;;;;;;;19.21;62.51;101682.89;1734661;81;21498;-55
2021/11/08 08:02:38;;;;;;;14.68;10.63;;;;;;;19.23;62.39;101685.00;1734329;81;20991;-56
2021/11/08 08:05:06;;;;;;;14.23;10.70;;;;;;;19.23;62.27;101669.17;1732169;82;21011;-54
2021/11/08 08:07:33;;;;;;;16.23;10.32;;;;;;;19.24;62.24;101664.76;1740153;81;20988;-51
2021/11/08 08:09:59;;;;;;;15.80;10.28;;;;;;;19.25;62.22;101661.17;1733207;81;20979;-55
2021/11/08 08:12:27;;;;;;;14.33;11.12;;;;;;;19.27;62.15;101665.92;1733228;81;21046;-55
2021/11/08 08:14:54;;;;;;;18.37;9.93;;;;;;;19.27;62.10;101662.84;1733701;81;21562;-58
2021/11/08 08:17:20;;;;;;;19.15;11.65;;;;;;;19.27;62.25;101669.44;1732303;81;21511;-52
2021/11/08 08:19:47;;;;;;;20.23;11.70;;;;;;;19.29;62.11;101668.91;1738314;81;21611;-55
2021/11/08 08:22:14;;;;;;;17.70;10.25;;;;;;;19.32;62.03;101667.47;1733281;81;21550;-53
2021/11/08 08:24:40;;;;;;;22.05;10.18;;;;;;;19.33;62.04;101655.14;1723713;81;21522;-52
2021/11/08 08:27:08;;;;;;;15.05;9.28;;;;;;;19.35;61.98;101628.25;1735173;81;21081;-53
2021/11/08 08:29:34;;;;;;;18.98;9.78;;;;;;;19.36;61.94;101607.52;1735865;82;21090;-52
2021/11/08 08:32:01;;;;;;;17.55;9.45;;;;;;;19.39;61.93;101602.12;1736697;81;20983;-53
2021/11/08 08:34:29;;;;;;;22.98;11.55;;;;;;;19.41;61.75;101577.34;1699874;84;21050;-54
2021/11/08 08:36:57;;;;;;;13.80;10.05;;;;;;;19.43;61.77;101574.17;1733480;81;21558;-53
2021/11/08 08:39:26;;;;;;;17.23;10.20;;;;;;;19.44;61.67;101544.22;1733502;81;21018;-53
2021/11/08 08:41:53;;;;;;;16.70;9.93;;;;;;;19.48;61.70;101535.23;1724214;82;21019;-56
2021/11/08 08:44:20;;;;;;;16.75;10.70;;;;;;;19.53;61.68;101536.80;1736548;81;21030;-56
2021/11/08 08:46:47;;;;;;;15.95;10.45;;;;;;;19.54;61.57;101552.56;1724784;81;21066;-57
2021/11/08 08:49:15;;;;;;;16.95;9.73;;;;;;;19.56;61.44;101614.07;1734939;81;21038;-56
2021/11/08 08:51:43;;;;;;;17.70;10.10;;;;;;;19.57;61.29;101640.02;1736736;81;21073;-56
2021/11/08 08:54:12;;;;;;;15.78;9.83;;;;;;;19.56;61.05;101623.80;1735244;81;20999;-52
2021/11/08 08:56:39;;;;;;;14.50;9.95;;;;;;;19.52;61.10;101616.45;1732932;81;21011;-54
2021/11/08 08:59:06;;;;;;;13.95;9.85;;;;;;;19.48;61.26;101611.79;1728691;81;21011;-55
2021/11/08 09:01:32;;;;;;;14.87;9.68;;;;;;;19.48;61.29;101614.42;1733546;81;21038;-54
2021/11/08 09:03:59;;;;;;;17.90;10.18;;;;;;;19.47;61.34;101621.94;1733667;81;20990;-56
2021/11/08 09:06:26;;;;;;;17.25;10.68;;;;;;;19.45;61.46;101611.91;1735788;82;21034;-57
2021/11/08 09:08:53;;;;;;;16.07;10.40;;;;;;;19.47;61.51;101623.25;1740172;81;21499;-56
2021/11/08 09:11:21;;;;;;;14.28;10.00;;;;;;;19.48;61.48;101626.30;1747684;80;21027;-56
2021/11/08 09:13:49;;;;;;;16.82;9.28;;;;;;;19.51;61.41;101623.13;1724529;81;21010;-58
2021/11/08 09:16:17;;;;;;;13.30;9.53;;;;;;;19.52;61.48;101622.19;1738754;81;21067;-55
2021/11/08 09:18:49;;;;;;;13.45;9.83;;;;;;;19.53;61.49;101612.05;1736480;82;21526;-54
2021/11/08 09:21:16;;;;;;;17.20;9.83;;;;;;;19.54;61.53;101610.64;1723651;81;20994;-54
2021/11/08 09:23:44;;;;;;;16.55;10.13;;;;;;;19.57;61.48;101595.13;1736741;81;22524;-51
2021/11/08 09:26:11;;;;;;;15.80;9.98;;;;;;;19.60;61.40;101588.41;1734773;81;21014;-50
2021/11/08 09:28:37;;;;;;;17.32;10.30;;;;;;;19.61;61.48;101592.75;1734894;81;20979;-49
2021/11/08 09:31:04;;;;;;;19.10;11.10;;;;;;;19.63;61.48;101600.13;1735279;82;21519;-51
2021/11/08 09:33:31;;;;;;;17.95;10.63;;;;;;;19.64;61.49;101588.66;1736471;81;21055;-50
2021/11/08 09:36:03;;;;;;;17.52;10.60;;;;;;;19.67;61.41;101595.11;1736420;81;21031;-51
2021/11/08 09:38:26;;;;;;;21.70;11.57;;;;;;;19.69;61.24;101581.37;1728034;81;20971;-54
2021/11/08 09:40:54;;;;;;;17.30;10.90;;;;;;;19.70;61.15;101574.69;1733023;81;21539;-52
2021/11/08 09:43:23;;;;;;;15.95;9.95;;;;;;;19.72;61.22;101566.72;1733161;81;21464;-49
2021/11/08 09:45:51;;;;;;;19.52;10.58;;;;;;;19.72;61.16;101556.16;1730747;82;20987;-52
2021/11/08 09:48:18;;;;;;;18.85;11.12;;;;;;;19.74;61.14;101559.09;1735233;81;21003;-52
2021/11/08 09:50:45;;;;;;;17.02;10.80;;;;;;;19.75;60.98;101558.63;1733249;81;21049;-55
2021/11/08 09:53:12;;;;;;;20.08;11.33;;;;;;;19.75;61.02;101567.88;1733479;81;20995;-53
2021/11/08 09:55:41;;;;;;;22.95;10.68;;;;;;;19.73;60.93;101569.73;1733384;81;21047;-51
2021/11/08 09:58:08;;;;;;;15.68;9.90;;;;;;;19.72;61.06;101587.84;1732018;81;21058;-56
2021/11/08 10:00:47;;;;;;;16.50;9.68;;;;;;;19.74;61.08;101580.70;1698591;84;21093;-54
2021/11/08 10:03:23;;;;;;;16.48;9.68;;;;;;;19.73;61.05;101575.02;1704773;84;20994;-54
2021/11/08 10:05:53;;;;;;;19.50;10.03;;;;;;;19.74;61.07;101581.53;1720990;82;21030;-51
2021/11/08 10:08:27;;;;;;;15.15;9.80;;;;;;;19.75;61.02;101578.44;1687564;84;21052;-54
2021/11/08 10:10:57;;;;;;;17.32;9.83;;;;;;;19.76;60.99;101586.77;1693659;83;21074;-51
2021/11/08 10:13:26;;;;;;;17.32;10.13;;;;;;;19.77;60.82;101597.71;1694107;83;21023;-51
2021/11/08 10:16:01;;;;;;;14.85;10.10;;;;;;;19.78;60.79;101595.48;1692870;83;21023;-51
2021/11/08 10:18:30;;;;;;;12.63;9.85;;;;;;;19.78;60.76;101588.88;1694375;83;21140;-51
2021/11/08 10:21:12;;;;;;;14.95;10.13;;;;;;;19.79;60.85;101589.25;1696056;84;21163;-51
2021/11/08 10:23:41;;;;;;;15.08;10.25;;;;;;;19.80;60.88;101595.81;1628451;86;21574;-53
2021/11/08 10:26:13;;;;;;;20.92;11.48;;;;;;;19.83;60.78;101604.03;1639381;86;21083;-55
2021/11/08 10:28:40;;;;;;;17.80;9.80;;;;;;;19.84;60.67;101600.47;1640760;86;21068;-50
2021/11/08 10:31:15;;;;;;;17.23;10.95;;;;;;;19.86;60.59;101610.50;1640212;86;21371;-53
2021/11/08 10:33:43;;;;;;;14.65;9.93;;;;;;;19.86;60.51;101603.90;1626955;87;21091;-50
2021/11/08 10:36:19;;;;;;;17.60;10.53;;;;;;;19.86;60.34;101590.69;1640418;87;21031;-56
2021/11/08 10:38:49;;;;;;;15.65;10.75;;;;;;;19.86;60.30;101589.37;1637884;85;21107;-51
2021/11/08 10:41:27;;;;;;;13.93;10.15;;;;;;;19.86;60.32;101582.77;1626744;86;21122;-52
2021/11/08 10:43:58;;;;;;;15.43;9.75;;;;;;;19.86;60.28;101573.07;1642327;87;21655;-52
2021/11/08 10:46:35;;;;;;;14.65;10.55;;;;;;;19.86;60.22;101577.03;1631541;86;21611;-53
2021/11/08 10:49:14;;;;;;;17.90;10.82;;;;;;;19.87;60.22;101579.18;1643108;86;21054;-51
2021/11/08 10:51:43;;;;;;;14.80;10.48;;;;;;;19.88;60.26;101602.05;1643098;86;21051;-57
2021/11/08 10:54:13;;;;;;;12.47;9.60;;;;;;;19.89;60.15;101606.37;1643142;86;21554;-54
2021/11/08 10:56:46;;;;;;;12.63;10.75;;;;;;;19.90;60.15;101594.90;1639499;87;21491;-51
2021/11/08 10:59:18;;;;;;;16.90;10.70;;;;;;;19.91;60.18;101608.48;1566881;90;21078;-57
2021/11/08 11:01:51;;;;;;;12.55;10.28;;;;;;;19.92;60.15;101609.76;1564994;90;21042;-52
2021/11/08 11:04:38;;;;;;;15.58;10.10;;;;;;;19.93;60.24;101603.98;1576210;90;22614;-53
2021/11/08 11:07:05;;;;;;;17.05;11.60;;;;;;;19.94;60.13;101614.96;1578889;90;21082;-51
2021/11/08 11:09:36;;;;;;;17.50;11.03;;;;;;;19.95;60.12;101614.02;1537787;91;21091;-50
2021/11/08 11:12:15;;;;;;;17.20;10.90;;;;;;;19.95;60.09;101638.66;1524424;93;21095;-54
2021/11/08 11:15:08;;;;;;;12.95;9.98;;;;;;;19.95;59.99;101635.14;1540514;92;21082;-50
2021/11/08 11:17:46;;;;;;;14.80;10.90;;;;;;;19.94;60.01;101644.02;1551732;91;21057;-54
2021/11/08 11:20:21;;;;;;;11.60;10.25;;;;;;;19.94;60.12;101644.02;1495385;95;21674;-55
2021/11/08 11:23:05;;;;;;;15.65;11.90;;;;;;;19.93;60.13;101640.97;1487943;94;21188;-50
2021/11/08 11:25:36;;;;;;;17.52;11.95;;;;;;;19.93;60.11;101635.69;1515802;94;21168;-55
2021/11/08 11:28:05;;;;;;;17.37;11.60;;;;;;;19.91;59.98;101636.22;1516945;94;21097;-53
2021/11/08 11:30:35;;;;;;;16.70;11.93;;;;;;;19.90;59.88;101621.31;1516706;94;21647;-50
2021/11/08 11:33:10;;;;;;;22.40;10.98;;;;;;;19.87;59.90;101617.02;1516166;92;21097;-51
2021/11/08 11:35:45;;;;;;;18.15;11.05;;;;;;;19.88;59.98;101628.45;1548418;92;21119;-54
2021/11/08 11:38:34;;;;;;;12.78;10.80;;;;;;;19.87;59.98;101621.44;1547813;92;21117;-53
2021/11/08 11:41:19;;;;;;;13.65;10.30;;;;;;;19.87;60.07;101602.95;1499049;95;21089;-50
2021/11/08 11:43:58;;;;;;;16.73;10.55;;;;;;;19.87;60.06;101597.67;1495897;95;21069;-57
2021/11/08 11:46:27;;;;;;;19.40;11.70;;;;;;;19.86;60.14;101607.86;1504501;95;21100;-54
2021/11/08 11:48:54;;;;;;;16.87;11.95;;;;;;;19.86;60.20;101592.02;1499398;95;21145;-51
2021/11/08 11:51:24;;;;;;;15.95;11.53;;;;;;;19.87;60.11;101591.94;1498142;95;21122;-54
2021/11/08 11:53:51;;;;;;;16.40;12.07;;;;;;;19.88;60.08;101591.48;1497270;95;21573;-50
2021/11/08 11:56:19;;;;;;;12.98;11.65;;;;;;;19.90;60.00;101594.90;1521367;93;21073;-54
2021/11/08 11:58:46;;;;;;;15.25;11.57;;;;;;;19.89;60.04;101593.17;1528900;93;21034;-54
2021/11/08 12:01:15;;;;;;;15.38;11.30;;;;;;;19.91;60.06;101589.99;1537470;93;21594;-52
2021/11/08 12:03:44;;;;;;;20.37;13.53;;;;;;;19.92;59.99;101578.06;1515188;93;21131;-52
2021/11/08 12:06:14;;;;;;;16.93;12.15;;;;;;;19.92;59.73;101577.19;1532297;93;21552;-56
2021/11/08 12:08:42;;;;;;;13.93;11.20;;;;;;;19.88;59.51;101579.13;1531617;93;21093;-52
2021/11/08 12:11:09;;;;;;;13.93;12.20;;;;;;;19.84;59.25;101575.38;1533004;93;21063;-55
2021/11/08 12:13:43;;;;;;;14.18;12.28;;;;;;;19.80;59.20;101562.80;1531825;93;21075;-55
2021/11/08 12:16:16;;;;;;;14.30;12.15;;;;;;;19.78;59.08;101554.55;1526513;87;21578;-55
2021/11/08 12:18:46;;;;;;;13.50;12.10;;;;;;;19.75;59.01;101564.78;1589947;90;21593;-52
2021/11/08 12:21:34;;;;;;;13.70;11.73;;;;;;;19.71;58.87;101571.59;1591349;90;21584;-53
2021/11/08 12:24:18;;;;;;;14.20;11.20;;;;;;;19.58;58.94;101575.25;1597366;90;21053;-52
2021/11/08 12:26:45;;;;;;;15.10;11.88;;;;;;;19.42;59.23;101559.27;1596146;90;21172;-56
2021/11/08 12:29:20;;;;;;;13.90;11.38;;;;;;;19.29;59.52;101558.07;1597284;90;21046;-56
2021/11/08 12:31:49;;;;;;;17.70;13.05;;;;;;;19.19;59.79;101564.69;1543258;93;21075;-52
2021/11/08 12:34:19;;;;;;;15.95;12.47;;;;;;;19.11;60.05;101560.22;1529760;92;21164;-52
2021/11/08 12:37:01;;;;;;;18.15;13.30;;;;;;;19.09;60.30;101547.56;1581378;90;21070;-56
2021/11/08 12:39:29;;;;;;;18.62;12.63;;;;;;;19.11;60.43;101547.48;1594559;90;21611;-57
2021/11/08 12:42:04;;;;;;;15.08;13.03;;;;;;;19.11;60.52;101557.58;1594247;90;21027;-56
2021/11/08 12:44:44;;;;;;;20.02;13.48;;;;;;;19.14;60.62;101561.41;1594362;90;21078;-52
2021/11/08 12:47:12;;;;;;;15.30;13.35;;;;;;;19.17;60.69;101557.30;1577612;90;21597;-55
2021/11/08 12:49:51;;;;;;;20.55;15.23;;;;;;;19.20;60.77;101555.86;1577570;90;21135;-52
2021/11/08 12:52:27;;;;;;;27.73;21.42;;;;;;;19.24;60.96;101562.72;1577773;90;21119;-53
2021/11/08 12:55:02;;;;;;;29.55;23.98;;;;;;;19.28;61.16;101577.48;1577680;90;21493;-53
2021/11/08 12:57:29;;;;;;;20.60;18.37;;;;;;;19.34;61.21;101586.48;1554298;92;21061;-52
2021/11/08 13:00:03;;;;;;;19.52;15.78;;;;;;;19.41;61.10;101593.18;1554438;91;21048;-52
2021/11/08 13:02:40;;;;;;;19.73;15.25;;;;;;;19.48;61.01;101598.59;1554291;91;21126;-54
2021/11/08 13:05:10;;;;;;;24.25;19.00;;;;;;;19.54;60.84;101595.29;1554418;91;21505;-51
2021/11/08 13:07:40;;;;;;;21.48;16.62;;;;;;;19.57;60.64;101588.53;1554378;91;21081;-53
2021/11/08 13:10:25;;;;;;;17.35;15.05;;;;;;;19.59;60.51;101593.28;1512601;94;21068;-54
2021/11/08 13:12:52;;;;;;;20.30;16.60;;;;;;;19.62;60.48;101592.67;1492280;95;21179;-54
2021/11/08 13:15:29;;;;;;;20.60;17.27;;;;;;;19.64;60.29;101582.89;1495300;96;21078;-53
2021/11/08 13:18:02;;;;;;;23.47;17.95;;;;;;;19.64;60.28;101588.17;1495903;95;21124;-50
2021/11/08 13:20:37;;;;;;;18.60;15.30;;;;;;;19.63;60.15;101589.57;1470151;97;21129;-54
2021/11/08 13:23:11;;;;;;;22.50;17.67;;;;;;;19.64;59.99;101597.91;1417273;100;21099;-50
2021/11/08 13:25:51;;;;;;;20.15;15.83;;;;;;;19.65;59.87;101602.23;1421519;100;21534;-57